PWSweather.com
Personal Weather Stations
Station Observations
SHAHALMS1
Eftra, Falkenberg, HA

EftraFalkenberg, HA

Lat: 56.85, Lon: 12.65

Elevation: 140

Station Type:

http://hem.passagen.se/risarp101

High Low Average
Temperature 65.5°F18.6°C 54.7°F12.6°C 60.1°F15.6°C
Dew Point 60.4°F15.8°C 45.2°F7.3°C 53.5°F11.9°C
Winds 9.1 mph 14.6 kmh 0.1 mph 0.2 kmh 5.0 mph SSW8.0 kmh SSW
Wind Gusts 27.9 mph44.9 kmh 2.5 mph4.0 kmh 13.0 mph20.9 kmh
Humidity 95% 65% 80%
Pressure 29.98 in1015.2 mb 29.68 in1005.1 mb -
Precipitation 0.71 in18.0 mm - -
Hour Temp Dew Point Humidity Winds Wind Gusts Pressure Precip Precip Rate Daily Precip Total
12:00 AM 56.5°F13.6°C 46.0°F7.8°C 68% 4.6 mph WNW7.4 kmh WNW 14.7 mph23.7 kmh 29.98 in1015.2 mb 0.00 in0.0 mm 0.00 in0.0 mm 0.00 in0.0 mm
12:10 AM 56.3°F13.5°C 45.9°F7.7°C 68% 3.4 mph W5.5 kmh W 14.0 mph22.5 kmh 29.98 in1015.2 mb 0.00 in0.0 mm 0.00 in0.0 mm 0.00 in0.0 mm
12:20 AM 56.1°F13.4°C 45.7°F7.6°C 68% 3.8 mph WNW6.1 kmh WNW 10.0 mph16.1 kmh 29.98 in1015.2 mb 0.00 in0.0 mm 0.00 in0.0 mm 0.00 in0.0 mm
12:30 AM 56.1°F13.4°C 45.7°F7.6°C 68% 4.8 mph W7.7 kmh W 14.0 mph22.5 kmh 29.98 in1015.2 mb 0.00 in0.0 mm 0.00 in0.0 mm 0.00 in0.0 mm
12:40 AM 56.1°F13.4°C 45.7°F7.6°C 68% 4.9 mph WNW7.9 kmh WNW 16.5 mph26.6 kmh 29.98 in1015.2 mb 0.00 in0.0 mm 0.00 in0.0 mm 0.00 in0.0 mm
12:50 AM 56.1°F13.4°C 45.7°F7.6°C 68% 4.2 mph WNW6.8 kmh WNW 12.5 mph20.1 kmh 29.98 in1015.2 mb 0.00 in0.0 mm 0.00 in0.0 mm 0.00 in0.0 mm
01:00 AM 56.1°F13.4°C 45.7°F7.6°C 68% 4.5 mph WNW7.2 kmh WNW 13.6 mph21.9 kmh 29.98 in1015.2 mb 0.00 in0.0 mm 0.00 in0.0 mm 0.00 in0.0 mm
01:10 AM 56.1°F13.4°C 46.1°F7.8°C 69% 4.9 mph WNW7.9 kmh WNW 11.8 mph19.0 kmh 29.98 in1015.2 mb 0.00 in0.0 mm 0.00 in0.0 mm 0.00 in0.0 mm
01:20 AM 56.3°F13.5°C 46.3°F7.9°C 69% 5.5 mph WNW8.9 kmh WNW 14.0 mph22.5 kmh 29.98 in1015.2 mb 0.00 in0.0 mm 0.00 in0.0 mm 0.00 in0.0 mm
01:30 AM 56.1°F13.4°C 45.7°F7.6°C 68% 3.8 mph WNW6.1 kmh WNW 10.4 mph16.7 kmh 29.98 in1015.2 mb 0.00 in0.0 mm 0.00 in0.0 mm 0.00 in0.0 mm
01:40 AM 55.9°F13.3°C 45.9°F7.7°C 69% 4.2 mph W6.8 kmh W 14.0 mph22.5 kmh 29.98 in1015.2 mb 0.00 in0.0 mm 0.00 in0.0 mm 0.00 in0.0 mm
01:50 AM 55.9°F13.3°C 45.9°F7.7°C 69% 4.1 mph W6.6 kmh W 20.0 mph32.2 kmh 29.98 in1015.2 mb 0.00 in0.0 mm 0.00 in0.0 mm 0.00 in0.0 mm
02:00 AM 55.9°F13.3°C 45.9°F7.7°C 69% 4.0 mph W6.4 kmh W 10.0 mph16.1 kmh 29.98 in1015.2 mb 0.00 in0.0 mm 0.00 in0.0 mm 0.00 in0.0 mm
02:10 AM 55.9°F13.3°C 45.9°F7.7°C 69% 4.1 mph WNW6.6 kmh WNW 16.1 mph25.9 kmh 29.98 in1015.2 mb 0.00 in0.0 mm 0.00 in0.0 mm 0.00 in0.0 mm
02:20 AM 55.9°F13.3°C 45.9°F7.7°C 69% 3.0 mph WNW4.8 kmh WNW 14.3 mph23.0 kmh 29.98 in1015.2 mb 0.00 in0.0 mm 0.00 in0.0 mm 0.00 in0.0 mm
02:30 AM 55.8°F13.2°C 45.7°F7.6°C 69% 3.0 mph W4.8 kmh W 11.8 mph19.0 kmh 29.95 in1014.2 mb 0.00 in0.0 mm 0.00 in0.0 mm 0.00 in0.0 mm
02:40 AM 55.4°F13.0°C 45.4°F7.4°C 69% 2.8 mph W4.5 kmh W 7.5 mph12.1 kmh 29.95 in1014.2 mb 0.00 in0.0 mm 0.00 in0.0 mm 0.00 in0.0 mm
02:50 AM 55.2°F12.9°C 45.2°F7.3°C 69% 2.7 mph W4.3 kmh W 8.6 mph13.8 kmh 29.95 in1014.2 mb 0.00 in0.0 mm 0.00 in0.0 mm 0.00 in0.0 mm
03:00 AM 55.2°F12.9°C 45.2°F7.3°C 69% 3.2 mph W5.1 kmh W 9.7 mph15.6 kmh 29.98 in1015.2 mb 0.00 in0.0 mm 0.00 in0.0 mm 0.00 in0.0 mm
03:10 AM 55.2°F12.9°C 45.6°F7.6°C 70% 2.7 mph WNW4.3 kmh WNW 9.3 mph15.0 kmh 29.98 in1015.2 mb 0.00 in0.0 mm 0.00 in0.0 mm 0.00 in0.0 mm
03:20 AM 55.0°F12.8°C 45.4°F7.4°C 70% 1.4 mph W2.3 kmh W 6.4 mph10.3 kmh 29.98 in1015.2 mb 0.00 in0.0 mm 0.00 in0.0 mm 0.00 in0.0 mm
03:30 AM 55.0°F12.8°C 45.8°F7.7°C 71% 3.8 mph W6.1 kmh W 10.0 mph16.1 kmh 29.98 in1015.2 mb 0.00 in0.0 mm 0.00 in0.0 mm 0.00 in0.0 mm
03:40 AM 55.0°F12.8°C 46.2°F7.9°C 72% 2.8 mph WNW4.5 kmh WNW 9.3 mph15.0 kmh 29.98 in1015.2 mb 0.00 in0.0 mm 0.00 in0.0 mm 0.00 in0.0 mm
03:50 AM 55.0°F12.8°C 46.2°F7.9°C 72% 1.1 mph WNW1.8 kmh WNW 5.7 mph9.2 kmh 29.98 in1015.2 mb 0.00 in0.0 mm 0.00 in0.0 mm 0.00 in0.0 mm
04:00 AM 55.0°F12.8°C 46.5°F8.1°C 73% 0.6 mph WNW1.0 kmh WNW 4.7 mph7.6 kmh 29.95 in1014.2 mb 0.00 in0.0 mm 0.00 in0.0 mm 0.00 in0.0 mm
04:10 AM 55.0°F12.8°C 46.9°F8.3°C 74% 0.8 mph W1.3 kmh W 5.0 mph8.0 kmh 29.95 in1014.2 mb 0.00 in0.0 mm 0.00 in0.0 mm 0.00 in0.0 mm
04:20 AM 54.9°F12.7°C 46.7°F8.2°C 74% 1.1 mph WSW1.8 kmh WSW 5.4 mph8.7 kmh 29.95 in1014.2 mb 0.00 in0.0 mm 0.00 in0.0 mm 0.00 in0.0 mm
04:30 AM 54.7°F12.6°C 46.6°F8.1°C 74% 1.1 mph W1.8 kmh W 5.7 mph9.2 kmh 29.92 in1013.2 mb 0.00 in0.0 mm 0.00 in0.0 mm 0.00 in0.0 mm
04:40 AM 54.7°F12.6°C 46.9°F8.3°C 75% 0.1 mph W0.2 kmh W 2.5 mph4.0 kmh 29.95 in1014.2 mb 0.00 in0.0 mm 0.00 in0.0 mm 0.00 in0.0 mm
04:50 AM 55.0°F12.8°C 48.0°F8.9°C 77% 1.1 mph SW1.8 kmh SW 8.6 mph13.8 kmh 29.95 in1014.2 mb 0.00 in0.0 mm 0.00 in0.0 mm 0.00 in0.0 mm
05:00 AM 55.0°F12.8°C 48.0°F8.9°C 77% 0.9 mph SW1.4 kmh SW 5.4 mph8.7 kmh 29.92 in1013.2 mb 0.00 in0.0 mm 0.00 in0.0 mm 0.00 in0.0 mm
05:10 AM 55.2°F12.9°C 48.5°F9.2°C 78% 2.4 mph W3.9 kmh W 6.4 mph10.3 kmh 29.92 in1013.2 mb 0.00 in0.0 mm 0.00 in0.0 mm 0.00 in0.0 mm
05:20 AM 55.4°F13.0°C 49.0°F9.4°C 79% 0.8 mph SW1.3 kmh SW 5.4 mph8.7 kmh 29.92 in1013.2 mb 0.00 in0.0 mm 0.00 in0.0 mm 0.00 in0.0 mm
05:30 AM 55.6°F13.1°C 49.2°F9.6°C 79% 0.8 mph SW1.3 kmh SW 5.7 mph9.2 kmh 29.95 in1014.2 mb 0.00 in0.0 mm 0.00 in0.0 mm 0.00 in0.0 mm
05:40 AM 55.9°F13.3°C 49.5°F9.7°C 79% 0.8 mph WSW1.3 kmh WSW 5.7 mph9.2 kmh 29.92 in1013.2 mb 0.00 in0.0 mm 0.00 in0.0 mm 0.00 in0.0 mm
05:50 AM 56.3°F13.5°C 49.9°F9.9°C 79% 0.3 mph WNW0.5 kmh WNW 5.0 mph8.0 kmh 29.92 in1013.2 mb 0.00 in0.0 mm 0.00 in0.0 mm 0.00 in0.0 mm
06:00 AM 56.5°F13.6°C 50.4°F10.2°C 80% 0.2 mph WSW0.3 kmh WSW 5.0 mph8.0 kmh 29.98 in1015.2 mb 0.00 in0.0 mm 0.00 in0.0 mm 0.00 in0.0 mm
06:10 AM 56.7°F13.7°C 50.6°F10.3°C 80% 0.6 mph WSW1.0 kmh WSW 6.1 mph9.8 kmh 29.98 in1015.2 mb 0.00 in0.0 mm 0.00 in0.0 mm 0.00 in0.0 mm
06:20 AM 56.8°F13.8°C 50.7°F10.4°C 80% 0.1 mph S0.2 kmh S 3.2 mph5.1 kmh 29.98 in1015.2 mb 0.00 in0.0 mm 0.00 in0.0 mm 0.00 in0.0 mm
06:30 AM 57.0°F13.9°C 50.9°F10.5°C 80% 0.1 mph S0.2 kmh S 2.5 mph4.0 kmh 29.95 in1014.2 mb 0.00 in0.0 mm 0.00 in0.0 mm 0.00 in0.0 mm
06:40 AM 57.4°F14.1°C 51.6°F10.9°C 81% 0.3 mph SSW0.5 kmh SSW 4.7 mph7.6 kmh 29.95 in1014.2 mb 0.00 in0.0 mm 0.00 in0.0 mm 0.00 in0.0 mm
06:50 AM 57.7°F14.3°C 51.9°F11.1°C 81% 2.3 mph SSW3.7 kmh SSW 13.6 mph21.9 kmh 29.95 in1014.2 mb 0.00 in0.0 mm 0.00 in0.0 mm 0.00 in0.0 mm
07:00 AM 57.9°F14.4°C 52.1°F11.2°C 81% 0.2 mph SSW0.3 kmh SSW 3.9 mph6.3 kmh 29.95 in1014.2 mb 0.00 in0.0 mm 0.00 in0.0 mm 0.00 in0.0 mm
07:10 AM 58.1°F14.5°C 52.3°F11.3°C 81% 0.4 mph WSW0.6 kmh WSW 4.3 mph6.9 kmh 29.98 in1015.2 mb 0.00 in0.0 mm 0.00 in0.0 mm 0.00 in0.0 mm
07:20 AM 58.3°F14.6°C 52.8°F11.6°C 82% 0.3 mph S0.5 kmh S 7.5 mph12.1 kmh 29.98 in1015.2 mb 0.00 in0.0 mm 0.00 in0.0 mm 0.00 in0.0 mm
07:30 AM 58.8°F14.9°C 53.7°F12.1°C 83% 2.1 mph SSW3.4 kmh SSW 9.3 mph15.0 kmh 29.95 in1014.2 mb 0.00 in0.0 mm 0.00 in0.0 mm 0.00 in0.0 mm
07:40 AM 59.4°F15.2°C 54.2°F12.3°C 83% 1.6 mph S2.6 kmh S 6.8 mph10.9 kmh 29.95 in1014.2 mb 0.00 in0.0 mm 0.00 in0.0 mm 0.00 in0.0 mm
07:50 AM 60.1°F15.6°C 54.9°F12.7°C 83% 1.6 mph SW2.6 kmh SW 11.8 mph19.0 kmh 29.95 in1014.2 mb 0.00 in0.0 mm 0.00 in0.0 mm 0.00 in0.0 mm
08:00 AM 60.6°F15.9°C 55.4°F13.0°C 83% 2.6 mph S4.2 kmh S 7.9 mph12.7 kmh 29.92 in1013.2 mb 0.00 in0.0 mm 0.00 in0.0 mm 0.00 in0.0 mm
08:10 AM 60.6°F15.9°C 55.8°F13.2°C 84% 4.2 mph S6.8 kmh S 12.2 mph19.6 kmh 29.95 in1014.2 mb 0.00 in0.0 mm 0.00 in0.0 mm 0.00 in0.0 mm
08:20 AM 60.4°F15.8°C 55.6°F13.1°C 84% 1.7 mph S2.7 kmh S 6.4 mph10.3 kmh 29.95 in1014.2 mb 0.00 in0.0 mm 0.00 in0.0 mm 0.00 in0.0 mm
08:30 AM 60.4°F15.8°C 55.9°F13.3°C 85% 1.0 mph S1.6 kmh S 5.0 mph8.0 kmh 29.92 in1013.2 mb 0.00 in0.0 mm 0.00 in0.0 mm 0.00 in0.0 mm
08:40 AM 61.0°F16.1°C 57.1°F13.9°C 87% 2.0 mph S3.2 kmh S 6.4 mph10.3 kmh 29.92 in1013.2 mb 0.00 in0.0 mm 0.00 in0.0 mm 0.00 in0.0 mm
08:50 AM 61.5°F16.4°C 57.9°F14.4°C 88% 5.1 mph S8.2 kmh S 12.5 mph20.1 kmh 29.92 in1013.2 mb 0.00 in0.0 mm 0.00 in0.0 mm 0.00 in0.0 mm
09:00 AM 62.1°F16.7°C 59.1°F15.1°C 90% 4.7 mph S7.6 kmh S 15.0 mph24.1 kmh 29.92 in1013.2 mb 0.00 in0.0 mm 0.00 in0.0 mm 0.00 in0.0 mm
09:10 AM 62.8°F17.1°C 59.8°F15.4°C 90% 6.2 mph S10.0 kmh S 17.2 mph27.7 kmh 29.92 in1013.2 mb 0.00 in0.0 mm 0.00 in0.0 mm 0.00 in0.0 mm
09:20 AM 63.0°F17.2°C 60.0°F15.6°C 90% 7.6 mph S12.2 kmh S 17.5 mph28.2 kmh 29.92 in1013.2 mb 0.00 in0.0 mm 0.00 in0.0 mm 0.00 in0.0 mm
09:30 AM 62.8°F17.1°C 59.2°F15.1°C 88% 7.0 mph S11.3 kmh S 12.9 mph20.8 kmh 29.92 in1013.2 mb 0.00 in0.0 mm 0.00 in0.0 mm 0.00 in0.0 mm
09:40 AM 62.8°F17.1°C 59.2°F15.1°C 88% 6.6 mph S10.6 kmh S 14.0 mph22.5 kmh 29.92 in1013.2 mb 0.00 in0.0 mm 0.00 in0.0 mm 0.00 in0.0 mm
09:50 AM 62.8°F17.1°C 59.2°F15.1°C 88% 5.2 mph S8.4 kmh S 11.8 mph19.0 kmh 29.92 in1013.2 mb 0.00 in0.0 mm 0.00 in0.0 mm 0.00 in0.0 mm
10:00 AM 63.1°F17.3°C 59.5°F15.3°C 88% 7.1 mph S11.4 kmh S 17.2 mph27.7 kmh 29.92 in1013.2 mb 0.00 in0.0 mm 0.00 in0.0 mm 0.00 in0.0 mm
10:10 AM 62.8°F17.1°C 58.9°F14.9°C 87% 4.8 mph S7.7 kmh S 16.5 mph26.6 kmh 29.92 in1013.2 mb 0.00 in0.0 mm 0.00 in0.0 mm 0.00 in0.0 mm
10:20 AM 62.6°F17.0°C 59.0°F15.0°C 88% 6.6 mph S10.6 kmh S 17.2 mph27.7 kmh 29.92 in1013.2 mb 0.00 in0.0 mm 0.00 in0.0 mm 0.00 in0.0 mm
10:30 AM 62.8°F17.1°C 59.5°F15.3°C 89% 6.4 mph S10.3 kmh S 13.6 mph21.9 kmh 29.89 in1012.2 mb 0.00 in0.0 mm 0.00 in0.0 mm 0.00 in0.0 mm
10:40 AM 63.3°F17.4°C 60.0°F15.6°C 89% 5.3 mph S8.5 kmh S 13.6 mph21.9 kmh 29.89 in1012.2 mb 0.00 in0.0 mm 0.00 in0.0 mm 0.00 in0.0 mm
10:50 AM 63.3°F17.4°C 60.0°F15.6°C 89% 6.4 mph S10.3 kmh S 15.0 mph24.1 kmh 29.89 in1012.2 mb 0.00 in0.0 mm 0.00 in0.0 mm 0.00 in0.0 mm
11:00 AM 62.8°F17.1°C 59.2°F15.1°C 88% 5.9 mph S9.5 kmh S 15.7 mph25.3 kmh 29.89 in1012.2 mb 0.00 in0.0 mm 0.00 in0.0 mm 0.00 in0.0 mm
11:10 AM 62.6°F17.0°C 59.0°F15.0°C 88% 8.1 mph S13.0 kmh S 17.9 mph28.8 kmh 29.89 in1012.2 mb 0.00 in0.0 mm 0.00 in0.0 mm 0.00 in0.0 mm
11:20 AM 63.0°F17.2°C 59.7°F15.4°C 89% 7.6 mph S12.2 kmh S 16.1 mph25.9 kmh 29.89 in1012.2 mb 0.00 in0.0 mm 0.00 in0.0 mm 0.00 in0.0 mm
11:30 AM 63.3°F17.4°C 60.0°F15.6°C 89% 6.3 mph S10.1 kmh S 12.2 mph19.6 kmh 29.89 in1012.2 mb 0.00 in0.0 mm 0.00 in0.0 mm 0.00 in0.0 mm
11:40 AM 64.0°F17.8°C 60.4°F15.8°C 88% 6.4 mph S10.3 kmh S 17.5 mph28.2 kmh 29.89 in1012.2 mb 0.00 in0.0 mm 0.00 in0.0 mm 0.00 in0.0 mm
11:50 AM 64.8°F18.2°C 60.1°F15.6°C 85% 8.5 mph S13.7 kmh S 23.6 mph38.0 kmh 29.89 in1012.2 mb 0.00 in0.0 mm 0.00 in0.0 mm 0.00 in0.0 mm
12:00 PM 65.1°F18.4°C 59.8°F15.4°C 83% 7.8 mph S12.6 kmh S 20.0 mph32.2 kmh 29.89 in1012.2 mb 0.00 in0.0 mm 0.00 in0.0 mm 0.00 in0.0 mm
12:10 PM 65.5°F18.6°C 59.8°F15.4°C 82% 6.5 mph S10.5 kmh S 19.7 mph31.7 kmh 29.89 in1012.2 mb 0.00 in0.0 mm 0.00 in0.0 mm 0.00 in0.0 mm
12:20 PM 65.3°F18.5°C 59.0°F15.0°C 80% 7.8 mph S12.6 kmh S 16.1 mph25.9 kmh 29.89 in1012.2 mb 0.00 in0.0 mm 0.00 in0.0 mm 0.00 in0.0 mm
12:30 PM 65.3°F18.5°C 58.6°F14.8°C 79% 6.9 mph S11.1 kmh S 17.2 mph27.7 kmh 29.92 in1013.2 mb 0.00 in0.0 mm 0.00 in0.0 mm 0.00 in0.0 mm
12:40 PM 65.3°F18.5°C 58.3°F14.6°C 78% 7.3 mph S11.7 kmh S 15.7 mph25.3 kmh 29.89 in1012.2 mb 0.00 in0.0 mm 0.00 in0.0 mm 0.00 in0.0 mm
12:50 PM 64.9°F18.3°C 57.2°F14.0°C 76% 7.5 mph S12.1 kmh S 19.3 mph31.1 kmh 29.89 in1012.2 mb 0.00 in0.0 mm 0.00 in0.0 mm 0.00 in0.0 mm
01:00 PM 64.9°F18.3°C 57.6°F14.2°C 77% 7.0 mph SSW11.3 kmh SSW 17.2 mph27.7 kmh 29.86 in1011.2 mb 0.00 in0.0 mm 0.00 in0.0 mm 0.00 in0.0 mm
01:10 PM 64.9°F18.3°C 57.6°F14.2°C 77% 6.8 mph S10.9 kmh S 16.1 mph25.9 kmh 29.86 in1011.2 mb 0.00 in0.0 mm 0.00 in0.0 mm 0.00 in0.0 mm
01:20 PM 64.9°F18.3°C 57.2°F14.0°C 76% 7.7 mph S12.4 kmh S 17.2 mph27.7 kmh 29.86 in1011.2 mb 0.00 in0.0 mm 0.00 in0.0 mm 0.00 in0.0 mm
01:30 PM 65.1°F18.4°C 57.0°F13.9°C 75% 7.6 mph S12.2 kmh S 16.8 mph27.0 kmh 29.86 in1011.2 mb 0.00 in0.0 mm 0.00 in0.0 mm 0.00 in0.0 mm
01:40 PM 64.8°F18.2°C 55.5°F13.1°C 72% 7.3 mph S11.7 kmh S 14.3 mph23.0 kmh 29.86 in1011.2 mb 0.00 in0.0 mm 0.00 in0.0 mm 0.00 in0.0 mm
01:50 PM 64.4°F18.0°C 54.8°F12.7°C 71% 6.8 mph S10.9 kmh S 23.6 mph38.0 kmh 29.86 in1011.2 mb 0.00 in0.0 mm 0.00 in0.0 mm 0.00 in0.0 mm
02:00 PM 64.8°F18.2°C 55.1°F12.8°C 71% 8.1 mph S13.0 kmh S 16.1 mph25.9 kmh 29.83 in1010.2 mb 0.00 in0.0 mm 0.00 in0.0 mm 0.00 in0.0 mm
02:10 PM 64.9°F18.3°C 55.3°F12.9°C 71% 6.0 mph S9.7 kmh S 13.6 mph21.9 kmh 29.83 in1010.2 mb 0.00 in0.0 mm 0.00 in0.0 mm 0.00 in0.0 mm
02:20 PM 65.1°F18.4°C 54.7°F12.6°C 69% 7.7 mph S12.4 kmh S 16.1 mph25.9 kmh 29.83 in1010.2 mb 0.00 in0.0 mm 0.00 in0.0 mm 0.00 in0.0 mm
02:30 PM 65.3°F18.5°C 54.5°F12.5°C 68% 7.6 mph S12.2 kmh S 17.5 mph28.2 kmh 29.80 in1009.1 mb 0.00 in0.0 mm 0.00 in0.0 mm 0.00 in0.0 mm
02:40 PM 65.1°F18.4°C 53.5°F11.9°C 66% 8.2 mph S13.2 kmh S 16.5 mph26.6 kmh 29.83 in1010.2 mb 0.00 in0.0 mm 0.00 in0.0 mm 0.00 in0.0 mm
02:50 PM 64.6°F18.1°C 53.0°F11.7°C 66% 7.6 mph S12.2 kmh S 14.7 mph23.7 kmh 29.83 in1010.2 mb 0.00 in0.0 mm 0.00 in0.0 mm 0.00 in0.0 mm
03:00 PM 64.2°F17.9°C 52.2°F11.2°C 65% 8.8 mph S14.2 kmh S 16.1 mph25.9 kmh 29.83 in1010.2 mb 0.00 in0.0 mm 0.00 in0.0 mm 0.00 in0.0 mm
03:10 PM 64.4°F18.0°C 52.8°F11.6°C 66% 6.6 mph S10.6 kmh S 16.8 mph27.0 kmh 29.83 in1010.2 mb 0.00 in0.0 mm 0.00 in0.0 mm 0.00 in0.0 mm
03:20 PM 64.2°F17.9°C 52.6°F11.4°C 66% 6.4 mph S10.3 kmh S 19.7 mph31.7 kmh 29.83 in1010.2 mb 0.00 in0.0 mm 0.00 in0.0 mm 0.00 in0.0 mm
03:30 PM 64.0°F17.8°C 52.4°F11.3°C 66% 6.4 mph S10.3 kmh S 16.8 mph27.0 kmh 29.83 in1010.2 mb 0.00 in0.0 mm 0.00 in0.0 mm 0.00 in0.0 mm
03:40 PM 63.9°F17.7°C 53.1°F11.7°C 68% 6.4 mph S10.3 kmh S 19.3 mph31.1 kmh 29.83 in1010.2 mb 0.00 in0.0 mm 0.00 in0.0 mm 0.00 in0.0 mm
03:50 PM 63.7°F17.6°C 52.5°F11.4°C 67% 6.1 mph S9.8 kmh S 11.8 mph19.0 kmh 29.83 in1010.2 mb 0.00 in0.0 mm 0.00 in0.0 mm 0.00 in0.0 mm
04:00 PM 63.3°F17.4°C 52.2°F11.2°C 67% 4.3 mph S6.9 kmh S 9.3 mph15.0 kmh 29.83 in1010.2 mb 0.00 in0.0 mm 0.00 in0.0 mm 0.00 in0.0 mm
04:10 PM 63.0°F17.2°C 51.8°F11.0°C 67% 6.9 mph S11.1 kmh S 16.1 mph25.9 kmh 29.83 in1010.2 mb 0.00 in0.0 mm 0.00 in0.0 mm 0.00 in0.0 mm
04:20 PM 62.8°F17.1°C 51.7°F10.9°C 67% 5.7 mph S9.2 kmh S 12.9 mph20.8 kmh 29.83 in1010.2 mb 0.00 in0.0 mm 0.00 in0.0 mm 0.00 in0.0 mm
04:30 PM 62.6°F17.0°C 51.5°F10.8°C 67% 3.9 mph S6.3 kmh S 13.6 mph21.9 kmh 29.80 in1009.1 mb 0.00 in0.0 mm 0.00 in0.0 mm 0.00 in0.0 mm
04:40 PM 62.4°F16.9°C 51.7°F10.9°C 68% 5.3 mph S8.5 kmh S 13.6 mph21.9 kmh 29.80 in1009.1 mb 0.00 in0.0 mm 0.00 in0.0 mm 0.00 in0.0 mm
04:50 PM 62.4°F16.9°C 51.7°F10.9°C 68% 4.8 mph S7.7 kmh S 9.7 mph15.6 kmh 29.80 in1009.1 mb 0.00 in0.0 mm 0.00 in0.0 mm 0.00 in0.0 mm
05:00 PM 62.2°F16.8°C 51.9°F11.1°C 69% 5.7 mph S9.2 kmh S 12.2 mph19.6 kmh 29.80 in1009.1 mb 0.00 in0.0 mm 0.00 in0.0 mm 0.00 in0.0 mm
05:10 PM 62.2°F16.8°C 51.9°F11.1°C 69% 5.3 mph S8.5 kmh S 15.4 mph24.8 kmh 29.77 in1008.1 mb 0.00 in0.0 mm 0.00 in0.0 mm 0.00 in0.0 mm
05:20 PM 62.2°F16.8°C 52.3°F11.3°C 70% 4.5 mph S7.2 kmh S 9.3 mph15.0 kmh 29.77 in1008.1 mb 0.00 in0.0 mm 0.00 in0.0 mm 0.00 in0.0 mm
05:30 PM 62.1°F16.7°C 52.5°F11.4°C 71% 4.7 mph S7.6 kmh S 12.5 mph20.1 kmh 29.77 in1008.1 mb 0.00 in0.0 mm 0.00 in0.0 mm 0.00 in0.0 mm
05:40 PM 62.1°F16.7°C 52.9°F11.6°C 72% 4.4 mph S7.1 kmh S 11.5 mph18.5 kmh 29.77 in1008.1 mb 0.00 in0.0 mm 0.00 in0.0 mm 0.00 in0.0 mm
05:50 PM 62.1°F16.7°C 53.7°F12.1°C 74% 5.8 mph SSE9.3 kmh SSE 14.7 mph23.7 kmh 29.77 in1008.1 mb 0.00 in0.0 mm 0.00 in0.0 mm 0.00 in0.0 mm
06:00 PM 61.7°F16.5°C 54.1°F12.3°C 76% 4.9 mph S7.9 kmh S 15.4 mph24.8 kmh 29.77 in1008.1 mb 0.00 in0.0 mm 0.00 in0.0 mm 0.00 in0.0 mm
06:10 PM 61.3°F16.3°C 54.1°F12.3°C 77% 1.7 mph S2.7 kmh S 6.8 mph10.9 kmh 29.74 in1007.1 mb 0.00 in0.0 mm 0.00 in0.0 mm 0.00 in0.0 mm
06:20 PM 61.3°F16.3°C 54.4°F12.4°C 78% 3.4 mph S5.5 kmh S 11.8 mph19.0 kmh 29.74 in1007.1 mb 0.00 in0.0 mm 0.00 in0.0 mm 0.00 in0.0 mm
06:30 PM 61.2°F16.2°C 54.6°F12.6°C 79% 4.2 mph S6.8 kmh S 11.8 mph19.0 kmh 29.80 in1009.1 mb 0.00 in0.0 mm 0.00 in0.0 mm 0.00 in0.0 mm
06:40 PM 61.0°F16.1°C 54.8°F12.7°C 80% 2.9 mph S4.7 kmh S 10.4 mph16.7 kmh 29.80 in1009.1 mb 0.00 in0.0 mm 0.00 in0.0 mm 0.00 in0.0 mm
06:50 PM 60.8°F16.0°C 54.6°F12.6°C 80% 3.1 mph S5.0 kmh S 12.5 mph20.1 kmh 29.80 in1009.1 mb 0.00 in0.0 mm 0.00 in0.0 mm 0.00 in0.0 mm
07:00 PM 60.6°F15.9°C 54.8°F12.7°C 81% 5.9 mph S9.5 kmh S 14.0 mph22.5 kmh 29.77 in1008.1 mb 0.05 in1.3 mm 0.06 in1.5 mm 0.05 in1.3 mm
07:10 PM 60.3°F15.7°C 54.7°F12.6°C 82% 7.7 mph S12.4 kmh S 17.9 mph28.8 kmh 29.77 in1008.1 mb 0.05 in1.3 mm 0.00 in0.0 mm 0.05 in1.3 mm
07:20 PM 59.9°F15.5°C 55.4°F13.0°C 85% 9.1 mph S14.6 kmh S 26.8 mph43.1 kmh 29.77 in1008.1 mb 0.05 in1.3 mm 0.00 in0.0 mm 0.05 in1.3 mm
07:30 PM 59.5°F15.3°C 56.0°F13.3°C 88% 8.7 mph S14.0 kmh S 22.9 mph36.9 kmh 29.77 in1008.1 mb 0.09 in2.3 mm 0.24 in6.1 mm 0.09 in2.3 mm
07:40 PM 59.4°F15.2°C 56.1°F13.4°C 89% 7.9 mph S12.7 kmh S 16.8 mph27.0 kmh 29.77 in1008.1 mb 0.09 in2.3 mm 0.00 in0.0 mm 0.09 in2.3 mm
07:50 PM 59.2°F15.1°C 56.2°F13.4°C 90% 6.3 mph S10.1 kmh S 13.6 mph21.9 kmh 29.77 in1008.1 mb 0.15 in3.8 mm 0.36 in9.1 mm 0.15 in3.8 mm
08:00 PM 59.2°F15.1°C 56.6°F13.7°C 91% 6.5 mph S10.5 kmh S 16.8 mph27.0 kmh 29.77 in1008.1 mb 0.10 in2.5 mm 0.00 in0.0 mm 0.15 in3.8 mm
08:10 PM 59.2°F15.1°C 56.6°F13.7°C 91% 5.7 mph S9.2 kmh S 12.2 mph19.6 kmh 29.74 in1007.1 mb 0.10 in2.5 mm 0.00 in0.0 mm 0.15 in3.8 mm
08:20 PM 59.2°F15.1°C 56.6°F13.7°C 91% 4.8 mph S7.7 kmh S 14.7 mph23.7 kmh 29.74 in1007.1 mb 0.15 in3.8 mm 0.30 in7.6 mm 0.20 in5.1 mm
08:30 PM 58.8°F14.9°C 56.2°F13.4°C 91% 6.8 mph S10.9 kmh S 16.5 mph26.6 kmh 29.74 in1007.1 mb 0.10 in2.5 mm 0.00 in0.0 mm 0.20 in5.1 mm
08:40 PM 58.8°F14.9°C 56.5°F13.6°C 92% 7.7 mph S12.4 kmh S 21.5 mph34.6 kmh 29.77 in1008.1 mb 0.19 in4.8 mm 0.54 in13.7 mm 0.29 in7.4 mm
08:50 PM 58.6°F14.8°C 56.3°F13.5°C 92% 5.5 mph S8.9 kmh S 12.5 mph20.1 kmh 29.77 in1008.1 mb 0.14 in3.6 mm 0.00 in0.0 mm 0.29 in7.4 mm
09:00 PM 58.6°F14.8°C 56.6°F13.7°C 93% 6.7 mph S10.8 kmh S 16.1 mph25.9 kmh 29.74 in1007.1 mb 0.19 in4.8 mm 0.06 in1.5 mm 0.33 in8.4 mm
09:10 PM 58.5°F14.7°C 56.4°F13.6°C 93% 4.6 mph S7.4 kmh S 12.5 mph20.1 kmh 29.74 in1007.1 mb 0.28 in7.1 mm 0.54 in13.7 mm 0.43 in10.9 mm
09:20 PM 58.6°F14.8°C 56.6°F13.7°C 93% 4.2 mph SSW6.8 kmh SSW 9.3 mph15.0 kmh 29.74 in1007.1 mb 0.28 in7.1 mm 0.00 in0.0 mm 0.47 in11.9 mm
09:30 PM 58.8°F14.9°C 56.8°F13.8°C 93% 6.3 mph S10.1 kmh S 12.9 mph20.8 kmh 29.71 in1006.1 mb 0.28 in7.1 mm 0.00 in0.0 mm 0.47 in11.9 mm
09:40 PM 58.8°F14.9°C 57.1°F13.9°C 94% 7.8 mph S12.6 kmh S 23.6 mph38.0 kmh 29.71 in1006.1 mb 0.24 in6.1 mm 0.00 in0.0 mm 0.53 in13.5 mm
09:50 PM 59.0°F15.0°C 57.3°F14.1°C 94% 7.2 mph S11.6 kmh S 17.2 mph27.7 kmh 29.71 in1006.1 mb 0.29 in7.4 mm 0.30 in7.6 mm 0.57 in14.5 mm
10:00 PM 59.2°F15.1°C 57.5°F14.2°C 94% 6.3 mph S10.1 kmh S 14.0 mph22.5 kmh 29.71 in1006.1 mb 0.24 in6.1 mm 0.00 in0.0 mm 0.57 in14.5 mm
10:10 PM 59.5°F15.3°C 58.1°F14.5°C 95% 7.1 mph S11.4 kmh S 19.3 mph31.1 kmh 29.68 in1005.1 mb 0.19 in4.8 mm 0.00 in0.0 mm 0.62 in15.7 mm
10:20 PM 59.5°F15.3°C 58.1°F14.5°C 95% 5.9 mph S9.5 kmh S 17.2 mph27.7 kmh 29.68 in1005.1 mb 0.15 in3.8 mm 0.00 in0.0 mm 0.62 in15.7 mm
10:30 PM 59.7°F15.4°C 58.3°F14.6°C 95% 6.0 mph S9.7 kmh S 16.1 mph25.9 kmh 29.74 in1007.1 mb 0.19 in4.8 mm 0.24 in6.1 mm 0.67 in17.0 mm
10:40 PM 59.9°F15.5°C 58.5°F14.7°C 95% 6.9 mph S11.1 kmh S 12.9 mph20.8 kmh 29.71 in1006.1 mb 0.14 in3.6 mm 0.00 in0.0 mm 0.67 in17.0 mm
10:50 PM 60.1°F15.6°C 58.6°F14.8°C 95% 6.9 mph S11.1 kmh S 12.5 mph20.1 kmh 29.71 in1006.1 mb 0.14 in3.6 mm 0.00 in0.0 mm 0.71 in18.0 mm
11:00 PM 60.1°F15.6°C 58.6°F14.8°C 95% 8.6 mph S13.8 kmh S 27.9 mph44.9 kmh 29.71 in1006.1 mb 0.14 in3.6 mm 0.00 in0.0 mm 0.52 in13.2 mm
11:10 PM 59.9°F15.5°C 58.5°F14.7°C 95% 7.8 mph S12.6 kmh S 16.1 mph25.9 kmh 29.71 in1006.1 mb 0.09 in2.3 mm 0.00 in0.0 mm 0.52 in13.2 mm
11:20 PM 59.9°F15.5°C 58.5°F14.7°C 95% 8.3 mph S13.4 kmh S 17.5 mph28.2 kmh 29.71 in1006.1 mb 0.09 in2.3 mm 0.00 in0.0 mm 0.52 in13.2 mm
11:30 PM 59.7°F15.4°C 58.3°F14.6°C 95% 6.5 mph S10.5 kmh S 16.8 mph27.0 kmh 29.68 in1005.1 mb 0.05 in1.3 mm 0.00 in0.0 mm 0.52 in13.2 mm
11:40 PM 59.5°F15.3°C 58.1°F14.5°C 95% 5.5 mph S8.9 kmh S 16.5 mph26.6 kmh 29.68 in1005.1 mb 0.10 in2.5 mm 0.30 in7.6 mm 0.06 in1.5 mm
11:50 PM 59.5°F15.3°C 58.1°F14.5°C 95% 5.1 mph S8.2 kmh S 12.9 mph20.8 kmh 29.68 in1005.1 mb 0.15 in3.8 mm 0.30 in7.6 mm 0.15 in3.8 mm